createdAt,value
2022-09-20T00:03:48.064Z,99216.31
2022-09-20T00:08:56.978Z,99223.64
2022-09-20T00:14:08.976Z,99226.91
2022-09-20T00:19:21.847Z,99224.17
2022-09-20T00:24:29.733Z,99228.13
2022-09-20T00:29:37.715Z,99230.68
2022-09-20T00:35:12.106Z,99235.35
2022-09-20T00:40:22.047Z,99237.58
2022-09-20T00:45:31.839Z,99235.27
2022-09-20T00:50:44.168Z,99239.80
2022-09-20T00:55:58.219Z,99243.63
2022-09-20T01:01:08.516Z,99244.84
2022-09-20T01:06:19.699Z,99246.77
2022-09-20T01:11:28.616Z,99246.73
2022-09-20T01:16:37.966Z,99245.16
2022-09-20T01:21:47.344Z,99247.64
2022-09-20T01:27:15.174Z,99247.50
2022-09-20T01:32:28.799Z,99249.84
2022-09-20T01:37:47.200Z,99248.27
2022-09-20T01:43:07.606Z,99249.88
2022-09-20T01:48:25.037Z,99251.52
2022-09-20T01:54:03.705Z,99249.65
2022-09-20T01:59:39.109Z,99250.98
2022-09-20T02:05:08.278Z,99254.73
2022-09-20T02:10:46.667Z,99250.56
2022-09-20T02:16:30.595Z,99257.99
2022-09-20T02:21:47.395Z,99257.17
2022-09-20T02:27:16.094Z,99260.38
2022-09-20T02:32:41.228Z,99266.70
2022-09-20T02:38:02.304Z,99272.80
2022-09-20T02:43:19.740Z,99265.92
2022-09-20T02:48:38.503Z,99285.14
2022-09-20T02:53:54.463Z,99286.99
2022-09-20T02:59:08.054Z,99291.69
2022-09-20T03:04:37.133Z,99291.48
2022-09-20T03:09:53.663Z,99300.39
2022-09-20T03:15:12.568Z,99304.15
2022-09-20T03:20:33.090Z,99309.90
2022-09-20T03:25:53.788Z,99311.44
2022-09-20T03:31:10.088Z,99313.35
2022-09-20T03:36:30.683Z,99317.40
2022-09-20T03:41:57.400Z,99319.51
2022-09-20T03:47:21.042Z,99324.73
2022-09-20T03:52:58.299Z,99319.36
2022-09-20T03:58:28.875Z,99330.10
2022-09-20T04:03:47.757Z,99334.07
2022-09-20T04:09:24.035Z,99332.27
2022-09-20T04:14:43.124Z,99336.61
2022-09-20T04:19:58.312Z,99343.70
2022-09-20T04:25:15.581Z,99347.76
2022-09-20T04:30:30.037Z,99351.83
2022-09-20T04:36:08.068Z,99355.02
2022-09-20T04:41:51.783Z,99362.77
2022-09-20T04:47:21.628Z,99364.52
2022-09-20T04:52:51.328Z,99376.83
2022-09-20T04:58:47.700Z,99384.39
2022-09-20T05:04:31.866Z,99392.30
2022-09-20T05:10:11.207Z,99397.73
2022-09-20T05:15:52.296Z,99399.37
2022-09-20T05:21:14.203Z,99408.98
2022-09-20T05:26:36.334Z,99408.84
2022-09-20T05:31:49.841Z,99412.14
2022-09-20T05:37:06.375Z,99413.36
2022-09-20T05:42:21.248Z,99420.28
2022-09-20T05:47:39.762Z,99420.37
2022-09-20T05:52:58.946Z,99428.35
2022-09-20T05:58:25.620Z,99436.56
2022-09-20T06:03:42.706Z,99443.73
2022-09-20T06:09:32.404Z,99443.36
2022-09-20T06:14:49.401Z,99446.96
2022-09-20T06:20:08.337Z,99448.20
2022-09-20T06:25:21.894Z,99449.66
2022-09-20T06:30:33.387Z,99452.75
2022-09-20T06:35:48.110Z,99455.31
2022-09-20T06:41:16.194Z,99459.48
2022-09-20T06:46:24.295Z,99461.45
2022-09-20T06:51:38.155Z,99462.16
2022-09-20T06:56:47.832Z,99467.88
2022-09-20T07:01:55.841Z,99468.98
2022-09-20T07:07:09.480Z,99474.20
2022-09-20T07:12:18.587Z,99473.39
2022-09-20T07:17:27.090Z,99475.73
2022-09-20T07:22:35.379Z,99476.16
2022-09-20T07:27:43.197Z,99483.48
2022-09-20T07:32:51.213Z,99489.13
2022-09-20T07:38:03.651Z,99495.27
2022-09-20T07:43:11.758Z,99498.95
2022-09-20T07:48:19.782Z,99499.67
2022-09-20T07:53:27.927Z,99503.08
2022-09-20T07:58:36.699Z,99508.64
2022-09-20T08:03:46.516Z,99512.85
2022-09-20T08:08:54.884Z,99521.08
2022-09-20T08:14:05.718Z,99516.14
2022-09-20T08:19:19.740Z,99517.55
2022-09-20T08:24:28.521Z,99520.17
2022-09-20T08:29:36.406Z,99519.54
2022-09-20T08:34:49.217Z,99522.05
2022-09-20T08:39:59.639Z,99522.10
2022-09-20T08:45:22.260Z,99523.31
2022-09-20T08:50:34.380Z,99525.64
2022-09-20T08:55:44.553Z,99526.17
2022-09-20T09:00:52.809Z,99530.47
2022-09-20T09:06:01.552Z,99529.13
2022-09-20T09:11:15.309Z,99528.67
2022-09-20T09:16:30.149Z,99532.08
2022-09-20T09:21:46.978Z,99528.89
2022-09-20T09:27:10.596Z,99527.46
2022-09-20T09:32:28.960Z,99527.26
2022-09-20T09:37:37.126Z,99524.73
2022-09-20T09:42:53.439Z,99523.65
2022-09-20T09:48:03.263Z,99522.04
2022-09-20T09:53:16.869Z,99523.59
2022-09-20T09:58:38.255Z,99522.85
2022-09-20T10:04:07.416Z,99517.79
2022-09-20T10:09:39.335Z,99527.15
2022-09-20T10:15:00.879Z,99528.66
2022-09-20T10:20:31.753Z,99529.94
2022-09-20T10:25:49.531Z,99531.03
2022-09-20T10:31:08.573Z,99526.24
2022-09-20T10:36:32.004Z,99533.77
2022-09-20T10:42:13.637Z,99534.75
2022-09-20T10:47:29.193Z,99538.30
2022-09-20T10:53:05.830Z,99543.45
2022-09-20T10:58:49.482Z,99543.30
2022-09-20T11:04:16.237Z,99541.04
2022-09-20T11:09:30.350Z,99539.02
2022-09-20T11:14:48.990Z,99545.34
2022-09-20T11:20:07.094Z,99547.08
2022-09-20T11:25:26.045Z,99545.59
2022-09-20T11:30:43.761Z,99547.16
2022-09-20T11:35:54.889Z,99555.16
2022-09-20T11:41:10.608Z,99565.58
2022-09-20T11:46:27.827Z,99568.73
2022-09-20T11:52:04.911Z,99567.34
2022-09-20T11:57:17.197Z,99573.16
2022-09-20T12:02:31.771Z,99568.71
2022-09-20T12:07:45.502Z,99578.35
2022-09-20T12:12:59.807Z,99578.29
2022-09-20T12:18:40.787Z,99578.58
2022-09-20T12:24:04.970Z,99576.70
2022-09-20T12:29:55.126Z,99582.33
2022-09-20T12:35:03.381Z,99581.88
2022-09-20T12:40:20.690Z,99589.86
2022-09-20T12:45:28.912Z,99594.61
2022-09-20T12:50:54.821Z,99602.94
2022-09-20T12:56:18.708Z,99608.76
2022-09-20T13:01:41.880Z,99620.14
2022-09-20T13:06:51.300Z,99627.36
2022-09-20T13:12:03.755Z,99617.39
2022-09-20T13:17:24.547Z,99624.64
2022-09-20T13:22:42.442Z,99623.57
2022-09-20T13:27:58.624Z,99624.59
2022-09-20T13:38:40.621Z,99630.34
2022-09-20T13:43:50.570Z,99631.05
2022-09-20T13:49:15.955Z,99631.95
2022-09-20T13:54:30.780Z,99631.41
2022-09-20T13:59:45.316Z,99632.73
2022-09-20T14:04:56.465Z,99639.38
2022-09-20T14:10:05.086Z,99641.08
2022-09-20T14:15:17.252Z,99647.61
2022-09-20T14:20:27.382Z,99652.30
2022-09-20T14:25:35.705Z,99655.83
2022-09-20T14:30:44.504Z,99664.88
2022-09-20T14:35:54.678Z,99667.42
2022-09-20T14:41:03.121Z,99670.23
2022-09-20T14:46:19.174Z,99671.12
2022-09-20T14:51:28.342Z,99669.36
2022-09-20T14:56:41.106Z,99668.86
2022-09-20T15:01:57.076Z,99671.52
2022-09-20T15:07:07.974Z,99674.78
2022-09-20T15:12:18.974Z,99680.09
2022-09-20T15:17:27.221Z,99690.54
2022-09-20T15:22:35.231Z,99693.47
2022-09-20T15:27:44.789Z,99692.84
2022-09-20T15:32:54.220Z,99692.23
2022-09-20T15:38:02.091Z,99691.79
2022-09-20T15:43:11.461Z,99695.05
2022-09-20T15:48:21.728Z,99702.02
2022-09-20T15:53:32.230Z,99703.34
2022-09-20T15:58:40.256Z,99712.35
2022-09-20T16:03:51.551Z,99718.28
2022-09-20T16:08:59.575Z,99722.88
2022-09-20T16:14:07.895Z,99728.17
2022-09-20T16:19:22.176Z,99731.54
2022-09-20T16:24:32.028Z,99741.52
2022-09-20T16:29:40.094Z,99738.30
2022-09-20T16:34:48.061Z,99741.27
2022-09-20T16:39:56.158Z,99743.94
2022-09-20T16:45:04.251Z,99748.70
2022-09-20T16:50:13.682Z,99756.80
2022-09-20T16:55:23.190Z,99766.45
2022-09-20T17:00:32.171Z,99766.44
2022-09-20T17:05:42.836Z,99765.41
2022-09-20T17:10:51.837Z,99773.91
2022-09-20T17:16:06.953Z,99779.13
2022-09-20T17:21:15.661Z,99786.54
2022-09-20T17:26:25.093Z,99791.73
2022-09-20T17:31:34.650Z,99801.66
2022-09-20T17:36:44.516Z,99808.88
2022-09-20T17:41:54.343Z,99803.95
2022-09-20T17:47:02.449Z,99806.30
2022-09-20T17:52:11.602Z,99807.98
2022-09-20T17:57:20.511Z,99808.98
2022-09-20T18:02:28.750Z,99816.01
2022-09-20T18:07:35.809Z,99824.17
2022-09-20T18:12:44.620Z,99828.15
2022-09-20T18:17:54.576Z,99831.40
2022-09-20T18:23:02.712Z,99831.83
2022-09-20T18:28:11.685Z,99838.02
2022-09-20T18:33:21.436Z,99840.48
2022-09-20T18:38:29.470Z,99844.27
2022-09-20T18:43:37.487Z,99845.11
2022-09-20T18:48:46.691Z,99850.60
2022-09-20T18:53:55.538Z,99852.96
2022-09-20T18:59:08.665Z,99862.66
2022-09-20T19:04:47.497Z,99862.89
2022-09-20T19:10:00.049Z,99875.67
2022-09-20T19:15:37.559Z,99878.15
2022-09-20T19:20:56.512Z,99880.30
2022-09-20T19:26:09.879Z,99887.63
2022-09-20T19:31:25.466Z,99887.52
2022-09-20T19:36:43.296Z,99887.91
2022-09-20T19:42:04.334Z,99893.41
2022-09-20T19:47:22.950Z,99895.95
2022-09-20T19:52:32.939Z,99898.23
2022-09-20T19:57:48.388Z,99905.13
2022-09-20T20:02:57.766Z,99905.31
2022-09-20T20:08:17.960Z,99907.90
2022-09-20T20:13:53.101Z,99912.36
2022-09-20T20:19:21.697Z,99910.17
2022-09-20T20:24:39.505Z,99915.21
2022-09-20T20:29:47.535Z,99913.85
2022-09-20T20:34:55.551Z,99916.14
2022-09-20T20:40:03.860Z,99916.96
2022-09-20T20:45:13.813Z,99920.77
2022-09-20T20:50:21.840Z,99913.80
2022-09-20T20:55:31.562Z,99917.03
2022-09-20T21:00:40.146Z,99922.23
2022-09-20T21:05:57.157Z,99929.17
2022-09-20T21:11:08.075Z,99933.71
2022-09-20T21:16:18.217Z,99933.13
2022-09-20T21:21:28.277Z,99936.70
2022-09-20T21:26:38.337Z,99943.25
2022-09-20T21:31:46.886Z,99946.54
2022-09-20T21:36:54.722Z,99950.70
2022-09-20T21:42:03.582Z,99945.45
2022-09-20T21:47:11.664Z,99950.73
2022-09-20T21:52:20.033Z,99953.76
2022-09-20T21:57:29.225Z,99955.31
2022-09-20T22:02:37.807Z,99952.12
2022-09-20T22:07:46.412Z,99956.73
2022-09-20T22:12:54.609Z,99956.08
2022-09-20T22:18:02.557Z,99957.36
2022-09-20T22:23:11.177Z,99956.83
2022-09-20T22:28:19.075Z,99954.06
2022-09-20T22:33:27.209Z,99959.30
2022-09-20T22:38:35.036Z,99962.83
2022-09-20T22:43:43.700Z,99961.44
2022-09-20T22:48:51.488Z,99964.61
2022-09-20T22:53:59.373Z,99969.00
2022-09-20T22:59:11.134Z,99974.98
2022-09-20T23:04:20.852Z,99978.89
2022-09-20T23:09:30.282Z,99979.63
2022-09-20T23:14:38.044Z,99983.69
2022-09-20T23:19:46.821Z,99981.64
2022-09-20T23:24:55.191Z,99989.38
2022-09-20T23:30:03.071Z,99991.87
2022-09-20T23:35:11.945Z,99998.28
2022-09-20T23:40:20.165Z,99997.64
2022-09-20T23:45:28.046Z,99999.14
2022-09-20T23:50:35.157Z,100000.29
2022-09-20T23:55:43.780Z,99999.33
